ZLO weather

Playa De Oro International Airport
Manzanillo, Col ima, Mexico

Public forecast

Using degrees Celsius for public forecast. Weather courtesy of forecast.io.

Current aviation weather report (METAR) for Playa De Oro International Airport

Retrieved 2019/10/18 01:43 UTC (41 minutes ago):

MMZO 180143Z 24010KT 3SM +RA OVC020 27/27 A2983 RMK 8/7// TS

Aviation forecast (TAF) for Playa De Oro International Airport

Forecast is more than 6 hours old.

Retrieved 2019/10/17 18:51 UTC (8 hours ago):

TAF MMZO 171649Z 1718/1818 03006KT P6SM BKN020 BKN090 BKN250 TEMPO 1720/1724 4SM TSRA BKN020CB FM180300 06006KT P6SM -RA BKN015 BKN070 OVC200 TEMPO 1810/1814 4SM RA FM181500 27006KT 6SM -RA BKN015 OVC070